Terminal Aerodrome Forecast
Issued by NWS

Home | Current Version | Previous Version | Text Only | Print | Product List | Glossary On
Versions: 1 2 3 4 5 6 7 8 9 10 11 12 13 14
000
FTUS45 KSLC 230812 AAA
TAFLGU
TAF AMD
KLGU 230812Z 2308/2406 02020G30KT P6SM VCSH SCT040 BKN080
     FM231000 34010KT P6SM -SHRA SCT030 BKN060
     FM231200 33007KT P6SM VCSH SCT040 BKN080
     FM231400 32006KT P6SM SCT080 SCT120=

USA.gov is the U.S. government's official web portal to all federal, state and local government web resources and services.